sensor_id;sensor_type;location;lat;lon;timestamp;P1;durP1;ratioP1;P2;durP2;ratioP2
72493;SDS011;60520;49.182;-0.348;2022-11-22T00:00:32;2.60;;;0.93;;
72493;SDS011;60520;49.182;-0.348;2022-11-22T00:02:59;2.60;;;0.90;;
72493;SDS011;60520;49.182;-0.348;2022-11-22T00:05:26;3.85;;;1.30;;
72493;SDS011;60520;49.182;-0.348;2022-11-22T00:07:53;2.10;;;0.80;;
72493;SDS011;60520;49.182;-0.348;2022-11-22T00:10:20;2.17;;;0.90;;
72493;SDS011;60520;49.182;-0.348;2022-11-22T00:12:49;2.38;;;1.00;;
72493;SDS011;60520;49.182;-0.348;2022-11-22T00:15:16;2.25;;;0.88;;
72493;SDS011;60520;49.182;-0.348;2022-11-22T00:17:43;2.78;;;1.15;;
72493;SDS011;60520;49.182;-0.348;2022-11-22T00:20:10;1.90;;;1.10;;
72493;SDS011;60520;49.182;-0.348;2022-11-22T00:22:38;1.83;;;0.88;;
72493;SDS011;60520;49.182;-0.348;2022-11-22T00:25:05;3.53;;;1.27;;
72493;SDS011;60520;49.182;-0.348;2022-11-22T00:27:33;2.30;;;0.80;;
72493;SDS011;60520;49.182;-0.348;2022-11-22T00:30:01;1.63;;;0.77;;
72493;SDS011;60520;49.182;-0.348;2022-11-22T00:32:28;1.52;;;0.80;;
72493;SDS011;60520;49.182;-0.348;2022-11-22T00:34:55;2.33;;;0.80;;
72493;SDS011;60520;49.182;-0.348;2022-11-22T00:37:23;2.72;;;1.08;;
72493;SDS011;60520;49.182;-0.348;2022-11-22T00:39:50;3.67;;;1.10;;
72493;SDS011;60520;49.182;-0.348;2022-11-22T00:42:17;2.13;;;0.80;;
72493;SDS011;60520;49.182;-0.348;2022-11-22T00:44:44;1.55;;;0.82;;
72493;SDS011;60520;49.182;-0.348;2022-11-22T00:47:12;3.75;;;1.10;;
72493;SDS011;60520;49.182;-0.348;2022-11-22T00:49:39;1.63;;;0.82;;
72493;SDS011;60520;49.182;-0.348;2022-11-22T00:52:07;2.15;;;1.13;;
72493;SDS011;60520;49.182;-0.348;2022-11-22T00:54:34;2.17;;;0.93;;
72493;SDS011;60520;49.182;-0.348;2022-11-22T00:57:01;3.17;;;0.73;;
72493;SDS011;60520;49.182;-0.348;2022-11-22T00:59:28;1.92;;;0.95;;
72493;SDS011;60520;49.182;-0.348;2022-11-22T01:01:55;1.90;;;0.93;;
72493;SDS011;60520;49.182;-0.348;2022-11-22T01:04:24;1.42;;;0.82;;
72493;SDS011;60520;49.182;-0.348;2022-11-22T01:06:51;3.28;;;1.00;;
72493;SDS011;60520;49.182;-0.348;2022-11-22T01:09:19;2.22;;;0.90;;
72493;SDS011;60520;49.182;-0.348;2022-11-22T01:11:47;3.38;;;1.00;;
72493;SDS011;60520;49.182;-0.348;2022-11-22T01:14:14;2.13;;;0.80;;
72493;SDS011;60520;49.182;-0.348;2022-11-22T01:16:42;1.65;;;0.90;;
72493;SDS011;60520;49.182;-0.348;2022-11-22T01:19:09;1.98;;;1.00;;
72493;SDS011;60520;49.182;-0.348;2022-11-22T01:21:38;1.30;;;0.68;;
72493;SDS011;60520;49.182;-0.348;2022-11-22T01:24:05;1.80;;;0.80;;
72493;SDS011;60520;49.182;-0.348;2022-11-22T01:26:33;2.72;;;0.85;;
72493;SDS011;60520;49.182;-0.348;2022-11-22T01:29:00;1.63;;;0.80;;
72493;SDS011;60520;49.182;-0.348;2022-11-22T01:31:27;2.80;;;1.00;;
72493;SDS011;60520;49.182;-0.348;2022-11-22T01:33:55;2.13;;;0.80;;
72493;SDS011;60520;49.182;-0.348;2022-11-22T01:36:22;3.10;;;1.13;;
72493;SDS011;60520;49.182;-0.348;2022-11-22T01:38:51;3.00;;;0.95;;
72493;SDS011;60520;49.182;-0.348;2022-11-22T01:41:18;2.13;;;1.10;;
72493;SDS011;60520;49.182;-0.348;2022-11-22T01:43:45;3.67;;;1.00;;
72493;SDS011;60520;49.182;-0.348;2022-11-22T01:46:14;1.80;;;0.80;;
72493;SDS011;60520;49.182;-0.348;2022-11-22T01:48:47;3.22;;;1.10;;
72493;SDS011;60520;49.182;-0.348;2022-11-22T01:51:18;2.13;;;0.90;;
72493;SDS011;60520;49.182;-0.348;2022-11-22T01:53:46;4.20;;;1.08;;
72493;SDS011;60520;49.182;-0.348;2022-11-22T01:56:15;2.78;;;0.90;;
72493;SDS011;60520;49.182;-0.348;2022-11-22T01:58:46;1.60;;;0.77;;
72493;SDS011;60520;49.182;-0.348;2022-11-22T02:01:14;2.10;;;0.88;;
72493;SDS011;60520;49.182;-0.348;2022-11-22T02:03:42;3.25;;;1.05;;
72493;SDS011;60520;49.182;-0.348;2022-11-22T02:06:10;3.30;;;1.10;;
72493;SDS011;60520;49.182;-0.348;2022-11-22T02:08:38;1.50;;;0.85;;
72493;SDS011;60520;49.182;-0.348;2022-11-22T02:11:07;2.03;;;0.90;;
72493;SDS011;60520;49.182;-0.348;2022-11-22T02:13:38;1.65;;;0.80;;
72493;SDS011;60520;49.182;-0.348;2022-11-22T02:16:05;2.10;;;0.98;;
72493;SDS011;60520;49.182;-0.348;2022-11-22T02:18:33;2.08;;;0.90;;
72493;SDS011;60520;49.182;-0.348;2022-11-22T02:21:00;1.67;;;0.73;;
72493;SDS011;60520;49.182;-0.348;2022-11-22T02:23:29;1.88;;;0.90;;
72493;SDS011;60520;49.182;-0.348;2022-11-22T02:25:59;2.10;;;0.80;;
72493;SDS011;60520;49.182;-0.348;2022-11-22T02:28:27;1.88;;;1.00;;
72493;SDS011;60520;49.182;-0.348;2022-11-22T02:30:55;1.65;;;0.90;;
72493;SDS011;60520;49.182;-0.348;2022-11-22T02:33:22;2.30;;;0.90;;
72493;SDS011;60520;49.182;-0.348;2022-11-22T02:35:49;1.58;;;0.70;;
72493;SDS011;60520;49.182;-0.348;2022-11-22T02:38:18;2.38;;;1.00;;
72493;SDS011;60520;49.182;-0.348;2022-11-22T02:40:48;2.03;;;0.73;;
72493;SDS011;60520;49.182;-0.348;2022-11-22T02:43:18;1.35;;;0.82;;
72493;SDS011;60520;49.182;-0.348;2022-11-22T02:45:46;2.20;;;0.70;;
72493;SDS011;60520;49.182;-0.348;2022-11-22T02:48:16;1.50;;;0.68;;
72493;SDS011;60520;49.182;-0.348;2022-11-22T02:50:43;1.38;;;0.60;;
72493;SDS011;60520;49.182;-0.348;2022-11-22T02:53:10;2.30;;;0.75;;
72493;SDS011;60520;49.182;-0.348;2022-11-22T02:55:38;1.50;;;0.80;;
72493;SDS011;60520;49.182;-0.348;2022-11-22T02:58:05;2.88;;;0.77;;
72493;SDS011;60520;49.182;-0.348;2022-11-22T03:00:34;2.53;;;1.00;;
72493;SDS011;60520;49.182;-0.348;2022-11-22T03:03:02;3.25;;;0.95;;
72493;SDS011;60520;49.182;-0.348;2022-11-22T03:05:29;1.85;;;0.80;;
72493;SDS011;60520;49.182;-0.348;2022-11-22T03:07:56;1.60;;;0.80;;
72493;SDS011;60520;49.182;-0.348;2022-11-22T03:10:23;2.30;;;0.90;;
72493;SDS011;60520;49.182;-0.348;2022-11-22T03:12:51;1.98;;;0.80;;
72493;SDS011;60520;49.182;-0.348;2022-11-22T03:15:18;1.85;;;0.85;;
72493;SDS011;60520;49.182;-0.348;2022-11-22T03:17:46;2.63;;;1.00;;
72493;SDS011;60520;49.182;-0.348;2022-11-22T03:20:13;1.10;;;0.68;;
72493;SDS011;60520;49.182;-0.348;2022-11-22T03:22:40;1.15;;;0.75;;
72493;SDS011;60520;49.182;-0.348;2022-11-22T03:25:08;2.35;;;0.90;;
72493;SDS011;60520;49.182;-0.348;2022-11-22T03:27:35;2.10;;;0.80;;
72493;SDS011;60520;49.182;-0.348;2022-11-22T03:30:02;2.80;;;0.80;;
72493;SDS011;60520;49.182;-0.348;2022-11-22T03:32:29;1.42;;;0.80;;
72493;SDS011;60520;49.182;-0.348;2022-11-22T03:34:58;1.63;;;0.80;;
72493;SDS011;60520;49.182;-0.348;2022-11-22T03:37:25;1.25;;;0.80;;
72493;SDS011;60520;49.182;-0.348;2022-11-22T03:39:52;0.90;;;0.60;;
72493;SDS011;60520;49.182;-0.348;2022-11-22T03:42:19;1.98;;;0.90;;
72493;SDS011;60520;49.182;-0.348;2022-11-22T03:44:46;1.35;;;0.70;;
72493;SDS011;60520;49.182;-0.348;2022-11-22T03:47:13;1.63;;;0.70;;
72493;SDS011;60520;49.182;-0.348;2022-11-22T03:49:41;1.20;;;0.68;;
72493;SDS011;60520;49.182;-0.348;2022-11-22T03:52:09;1.15;;;0.57;;
72493;SDS011;60520;49.182;-0.348;2022-11-22T03:54:37;2.45;;;0.90;;
72493;SDS011;60520;49.182;-0.348;2022-11-22T03:57:04;1.83;;;0.80;;
72493;SDS011;60520;49.182;-0.348;2022-11-22T03:59:31;2.08;;;0.80;;
72493;SDS011;60520;49.182;-0.348;2022-11-22T04:01:59;1.50;;;0.68;;
72493;SDS011;60520;49.182;-0.348;2022-11-22T04:04:26;2.40;;;0.70;;
72493;SDS011;60520;49.182;-0.348;2022-11-22T04:06:54;1.92;;;0.80;;
72493;SDS011;60520;49.182;-0.348;2022-11-22T04:09:22;1.60;;;0.90;;
72493;SDS011;60520;49.182;-0.348;2022-11-22T04:11:49;2.00;;;1.10;;
72493;SDS011;60520;49.182;-0.348;2022-11-22T04:14:16;1.45;;;0.65;;
72493;SDS011;60520;49.182;-0.348;2022-11-22T04:17:01;1.92;;;0.70;;
72493;SDS011;60520;49.182;-0.348;2022-11-22T04:19:28;0.98;;;0.60;;
72493;SDS011;60520;49.182;-0.348;2022-11-22T04:21:55;1.20;;;0.63;;
72493;SDS011;60520;49.182;-0.348;2022-11-22T04:24:23;1.55;;;0.80;;
72493;SDS011;60520;49.182;-0.348;2022-11-22T04:27:08;1.23;;;0.60;;
72493;SDS011;60520;49.182;-0.348;2022-11-22T04:29:35;1.20;;;0.63;;
72493;SDS011;60520;49.182;-0.348;2022-11-22T04:32:02;1.95;;;0.80;;
72493;SDS011;60520;49.182;-0.348;2022-11-22T04:34:47;1.73;;;0.80;;
72493;SDS011;60520;49.182;-0.348;2022-11-22T04:37:14;3.28;;;0.80;;
72493;SDS011;60520;49.182;-0.348;2022-11-22T04:39:43;1.10;;;0.60;;
72493;SDS011;60520;49.182;-0.348;2022-11-22T04:42:10;2.15;;;0.80;;
72493;SDS011;60520;49.182;-0.348;2022-11-22T04:45:09;0.88;;;0.50;;
72493;SDS011;60520;49.182;-0.348;2022-11-22T04:47:36;2.47;;;0.98;;
72493;SDS011;60520;49.182;-0.348;2022-11-22T04:50:21;1.33;;;0.60;;
72493;SDS011;60520;49.182;-0.348;2022-11-22T04:53:05;1.90;;;0.80;;
72493;SDS011;60520;49.182;-0.348;2022-11-22T04:55:34;1.23;;;0.70;;
72493;SDS011;60520;49.182;-0.348;2022-11-22T04:58:01;2.15;;;0.90;;
72493;SDS011;60520;49.182;-0.348;2022-11-22T05:00:29;2.15;;;0.73;;
72493;SDS011;60520;49.182;-0.348;2022-11-22T05:02:56;1.27;;;0.70;;
72493;SDS011;60520;49.182;-0.348;2022-11-22T05:05:24;1.10;;;0.68;;
72493;SDS011;60520;49.182;-0.348;2022-11-22T05:07:51;1.83;;;0.70;;
72493;SDS011;60520;49.182;-0.348;2022-11-22T05:10:19;2.10;;;0.88;;
72493;SDS011;60520;49.182;-0.348;2022-11-22T05:12:47;1.52;;;0.75;;
72493;SDS011;60520;49.182;-0.348;2022-11-22T05:15:14;1.50;;;0.90;;
72493;SDS011;60520;49.182;-0.348;2022-11-22T05:17:42;1.45;;;0.70;;
72493;SDS011;60520;49.182;-0.348;2022-11-22T05:20:09;0.88;;;0.65;;
72493;SDS011;60520;49.182;-0.348;2022-11-22T05:22:36;2.05;;;0.80;;
72493;SDS011;60520;49.182;-0.348;2022-11-22T05:25:21;1.17;;;0.60;;
72493;SDS011;60520;49.182;-0.348;2022-11-22T05:27:52;2.50;;;0.70;;
72493;SDS011;60520;49.182;-0.348;2022-11-22T05:30:20;1.75;;;0.80;;
72493;SDS011;60520;49.182;-0.348;2022-11-22T05:32:47;1.08;;;0.55;;
72493;SDS011;60520;49.182;-0.348;2022-11-22T05:35:14;1.50;;;0.70;;
72493;SDS011;60520;49.182;-0.348;2022-11-22T05:37:41;1.17;;;0.60;;
72493;SDS011;60520;49.182;-0.348;2022-11-22T05:40:09;1.92;;;0.80;;
72493;SDS011;60520;49.182;-0.348;2022-11-22T05:42:36;1.63;;;0.60;;
72493;SDS011;60520;49.182;-0.348;2022-11-22T05:45:05;1.77;;;0.70;;
72493;SDS011;60520;49.182;-0.348;2022-11-22T05:47:33;1.67;;;0.70;;
72493;SDS011;60520;49.182;-0.348;2022-11-22T05:50:00;1.55;;;0.70;;
72493;SDS011;60520;49.182;-0.348;2022-11-22T05:52:27;1.73;;;0.60;;
72493;SDS011;60520;49.182;-0.348;2022-11-22T05:54:54;1.35;;;0.70;;
72493;SDS011;60520;49.182;-0.348;2022-11-22T05:57:21;1.38;;;0.80;;
72493;SDS011;60520;49.182;-0.348;2022-11-22T05:59:49;0.98;;;0.65;;
72493;SDS011;60520;49.182;-0.348;2022-11-22T06:02:17;1.15;;;0.68;;
72493;SDS011;60520;49.182;-0.348;2022-11-22T06:04:44;1.25;;;0.75;;
72493;SDS011;60520;49.182;-0.348;2022-11-22T06:07:11;0.98;;;0.55;;
72493;SDS011;60520;49.182;-0.348;2022-11-22T06:09:39;1.50;;;0.80;;
72493;SDS011;60520;49.182;-0.348;2022-11-22T06:12:06;1.70;;;0.60;;
72493;SDS011;60520;49.182;-0.348;2022-11-22T06:14:33;1.80;;;0.80;;
72493;SDS011;60520;49.182;-0.348;2022-11-22T06:17:00;1.42;;;0.73;;
72493;SDS011;60520;49.182;-0.348;2022-11-22T06:19:29;1.80;;;0.63;;
72493;SDS011;60520;49.182;-0.348;2022-11-22T06:21:56;1.75;;;0.77;;
72493;SDS011;60520;49.182;-0.348;2022-11-22T06:24:23;1.42;;;0.60;;
72493;SDS011;60520;49.182;-0.348;2022-11-22T06:26:50;1.33;;;0.70;;
72493;SDS011;60520;49.182;-0.348;2022-11-22T06:29:17;1.00;;;0.68;;
72493;SDS011;60520;49.182;-0.348;2022-11-22T06:31:44;1.60;;;0.65;;
72493;SDS011;60520;49.182;-0.348;2022-11-22T06:34:11;1.13;;;0.55;;
72493;SDS011;60520;49.182;-0.348;2022-11-22T06:36:40;1.35;;;0.60;;
72493;SDS011;60520;49.182;-0.348;2022-11-22T06:39:07;1.17;;;0.60;;
72493;SDS011;60520;49.182;-0.348;2022-11-22T06:41:35;1.25;;;0.50;;
72493;SDS011;60520;49.182;-0.348;2022-11-22T06:44:03;1.90;;;0.70;;
72493;SDS011;60520;49.182;-0.348;2022-11-22T06:46:31;1.65;;;0.60;;
72493;SDS011;60520;49.182;-0.348;2022-11-22T06:48:58;1.73;;;0.70;;
72493;SDS011;60520;49.182;-0.348;2022-11-22T06:51:26;1.63;;;0.52;;
72493;SDS011;60520;49.182;-0.348;2022-11-22T06:53:55;1.05;;;0.60;;
72493;SDS011;60520;49.182;-0.348;2022-11-22T06:56:23;2.10;;;0.60;;
72493;SDS011;60520;49.182;-0.348;2022-11-22T06:58:51;1.13;;;0.50;;
72493;SDS011;60520;49.182;-0.348;2022-11-22T07:01:19;0.90;;;0.52;;
72493;SDS011;60520;49.182;-0.348;2022-11-22T07:03:46;1.85;;;0.70;;
72493;SDS011;60520;49.182;-0.348;2022-11-22T07:06:14;1.25;;;0.60;;
72493;SDS011;60520;49.182;-0.348;2022-11-22T07:08:42;2.38;;;0.80;;
72493;SDS011;60520;49.182;-0.348;2022-11-22T07:11:12;1.55;;;0.60;;
72493;SDS011;60520;49.182;-0.348;2022-11-22T07:13:39;1.63;;;0.70;;
72493;SDS011;60520;49.182;-0.348;2022-11-22T07:16:07;1.33;;;0.60;;
72493;SDS011;60520;49.182;-0.348;2022-11-22T07:18:34;1.30;;;0.75;;
72493;SDS011;60520;49.182;-0.348;2022-11-22T07:21:02;1.65;;;0.70;;
72493;SDS011;60520;49.182;-0.348;2022-11-22T07:23:30;1.38;;;0.60;;
72493;SDS011;60520;49.182;-0.348;2022-11-22T07:25:57;1.10;;;0.57;;
72493;SDS011;60520;49.182;-0.348;2022-11-22T07:28:26;0.90;;;0.60;;
72493;SDS011;60520;49.182;-0.348;2022-11-22T07:30:57;2.10;;;0.65;;
72493;SDS011;60520;49.182;-0.348;2022-11-22T07:33:24;1.17;;;0.70;;
72493;SDS011;60520;49.182;-0.348;2022-11-22T07:35:52;2.33;;;0.68;;
72493;SDS011;60520;49.182;-0.348;2022-11-22T07:38:19;1.35;;;0.70;;
72493;SDS011;60520;49.182;-0.348;2022-11-22T07:40:46;3.08;;;0.77;;
72493;SDS011;60520;49.182;-0.348;2022-11-22T07:43:13;4.85;;;0.93;;
72493;SDS011;60520;49.182;-0.348;2022-11-22T07:45:42;2.75;;;0.90;;
72493;SDS011;60520;49.182;-0.348;2022-11-22T07:48:09;6.32;;;0.95;;
72493;SDS011;60520;49.182;-0.348;2022-11-22T07:50:38;3.22;;;0.85;;
72493;SDS011;60520;49.182;-0.348;2022-11-22T07:53:06;7.80;;;1.20;;
72493;SDS011;60520;49.182;-0.348;2022-11-22T07:55:34;4.10;;;1.00;;
72493;SDS011;60520;49.182;-0.348;2022-11-22T07:58:01;5.03;;;0.82;;
72493;SDS011;60520;49.182;-0.348;2022-11-22T08:00:28;3.75;;;0.70;;
72493;SDS011;60520;49.182;-0.348;2022-11-22T08:02:57;1.55;;;0.88;;
72493;SDS011;60520;49.182;-0.348;2022-11-22T08:05:25;5.60;;;0.98;;
72493;SDS011;60520;49.182;-0.348;2022-11-22T08:07:52;1.35;;;0.70;;
72493;SDS011;60520;49.182;-0.348;2022-11-22T08:10:20;2.15;;;0.70;;
72493;SDS011;60520;49.182;-0.348;2022-11-22T08:12:47;3.83;;;0.77;;
72493;SDS011;60520;49.182;-0.348;2022-11-22T08:15:15;1.73;;;0.73;;
72493;SDS011;60520;49.182;-0.348;2022-11-22T08:17:42;2.45;;;0.80;;
72493;SDS011;60520;49.182;-0.348;2022-11-22T08:20:11;1.58;;;0.73;;
72493;SDS011;60520;49.182;-0.348;2022-11-22T08:22:38;1.40;;;0.73;;
72493;SDS011;60520;49.182;-0.348;2022-11-22T08:25:06;1.88;;;0.60;;
72493;SDS011;60520;49.182;-0.348;2022-11-22T08:27:36;1.23;;;0.80;;
72493;SDS011;60520;49.182;-0.348;2022-11-22T08:30:04;1.38;;;0.70;;
72493;SDS011;60520;49.182;-0.348;2022-11-22T08:32:31;1.25;;;0.60;;
72493;SDS011;60520;49.182;-0.348;2022-11-22T08:34:58;1.40;;;0.70;;
72493;SDS011;60520;49.182;-0.348;2022-11-22T08:37:27;2.72;;;0.77;;
72493;SDS011;60520;49.182;-0.348;2022-11-22T08:39:54;1.17;;;0.68;;
72493;SDS011;60520;49.182;-0.348;2022-11-22T08:42:21;1.67;;;0.82;;
72493;SDS011;60520;49.182;-0.348;2022-11-22T08:44:49;1.95;;;0.80;;
72493;SDS011;60520;49.182;-0.348;2022-11-22T08:47:16;1.55;;;0.80;;
72493;SDS011;60520;49.182;-0.348;2022-11-22T08:49:43;1.77;;;0.82;;
72493;SDS011;60520;49.182;-0.348;2022-11-22T08:52:10;3.40;;;0.80;;
72493;SDS011;60520;49.182;-0.348;2022-11-22T08:54:39;2.05;;;0.75;;
72493;SDS011;60520;49.182;-0.348;2022-11-22T08:57:06;2.08;;;0.80;;
72493;SDS011;60520;49.182;-0.348;2022-11-22T08:59:33;10.48;;;1.08;;
72493;SDS011;60520;49.182;-0.348;2022-11-22T09:02:00;3.28;;;1.02;;
72493;SDS011;60520;49.182;-0.348;2022-11-22T09:04:28;2.30;;;0.90;;
72493;SDS011;60520;49.182;-0.348;2022-11-22T09:06:55;2.90;;;0.80;;
72493;SDS011;60520;49.182;-0.348;2022-11-22T09:09:24;2.78;;;0.70;;
72493;SDS011;60520;49.182;-0.348;2022-11-22T09:11:52;2.05;;;0.88;;
72493;SDS011;60520;49.182;-0.348;2022-11-22T09:14:20;3.60;;;0.80;;
72493;SDS011;60520;49.182;-0.348;2022-11-22T09:16:47;1.15;;;0.70;;
72493;SDS011;60520;49.182;-0.348;2022-11-22T09:19:14;2.78;;;0.90;;
72493;SDS011;60520;49.182;-0.348;2022-11-22T09:21:41;5.07;;;0.70;;
72493;SDS011;60520;49.182;-0.348;2022-11-22T09:24:08;1.98;;;0.60;;
72493;SDS011;60520;49.182;-0.348;2022-11-22T09:26:35;3.83;;;0.68;;
72493;SDS011;60520;49.182;-0.348;2022-11-22T09:29:04;1.92;;;0.82;;
72493;SDS011;60520;49.182;-0.348;2022-11-22T09:31:31;3.53;;;0.82;;
72493;SDS011;60520;49.182;-0.348;2022-11-22T09:33:58;3.50;;;0.80;;
72493;SDS011;60520;49.182;-0.348;2022-11-22T09:36:25;1.75;;;0.90;;
72493;SDS011;60520;49.182;-0.348;2022-11-22T09:38:53;2.70;;;0.80;;
72493;SDS011;60520;49.182;-0.348;2022-11-22T09:41:24;1.83;;;0.73;;
72493;SDS011;60520;49.182;-0.348;2022-11-22T09:43:56;1.85;;;0.73;;
72493;SDS011;60520;49.182;-0.348;2022-11-22T09:46:30;2.92;;;0.70;;
72493;SDS011;60520;49.182;-0.348;2022-11-22T09:49:15;3.33;;;0.80;;
72493;SDS011;60520;49.182;-0.348;2022-11-22T09:51:46;1.63;;;0.70;;
72493;SDS011;60520;49.182;-0.348;2022-11-22T09:54:15;1.75;;;0.70;;
72493;SDS011;60520;49.182;-0.348;2022-11-22T09:56:44;4.13;;;0.68;;
72493;SDS011;60520;49.182;-0.348;2022-11-22T09:59:12;2.53;;;0.60;;
72493;SDS011;60520;49.182;-0.348;2022-11-22T10:01:44;1.63;;;0.70;;
72493;SDS011;60520;49.182;-0.348;2022-11-22T10:04:15;2.90;;;0.65;;
72493;SDS011;60520;49.182;-0.348;2022-11-22T10:06:44;1.70;;;0.60;;
72493;SDS011;60520;49.182;-0.348;2022-11-22T10:09:17;2.25;;;0.65;;
72493;SDS011;60520;49.182;-0.348;2022-11-22T10:11:48;2.55;;;0.60;;
72493;SDS011;60520;49.182;-0.348;2022-11-22T10:14:21;1.77;;;0.70;;
72493;SDS011;60520;49.182;-0.348;2022-11-22T10:16:54;8.00;;;0.98;;
72493;SDS011;60520;49.182;-0.348;2022-11-22T10:19:22;5.07;;;0.80;;
72493;SDS011;60520;49.182;-0.348;2022-11-22T10:21:53;2.97;;;0.82;;
72493;SDS011;60520;49.182;-0.348;2022-11-22T10:24:20;5.22;;;0.90;;
72493;SDS011;60520;49.182;-0.348;2022-11-22T10:26:48;2.95;;;0.70;;
72493;SDS011;60520;49.182;-0.348;2022-11-22T10:29:21;3.58;;;0.70;;
72493;SDS011;60520;49.182;-0.348;2022-11-22T10:31:53;3.33;;;0.70;;
72493;SDS011;60520;49.182;-0.348;2022-11-22T10:34:24;4.53;;;1.05;;
72493;SDS011;60520;49.182;-0.348;2022-11-22T10:36:55;2.30;;;0.70;;
72493;SDS011;60520;49.182;-0.348;2022-11-22T10:39:29;3.42;;;1.00;;
72493;SDS011;60520;49.182;-0.348;2022-11-22T10:42:07;1.90;;;0.90;;
72493;SDS011;60520;49.182;-0.348;2022-11-22T10:44:41;3.42;;;0.75;;
72493;SDS011;60520;49.182;-0.348;2022-11-22T10:47:12;2.75;;;0.88;;
72493;SDS011;60520;49.182;-0.348;2022-11-22T10:49:48;2.15;;;0.90;;
72493;SDS011;60520;49.182;-0.348;2022-11-22T10:52:20;1.90;;;0.80;;
72493;SDS011;60520;49.182;-0.348;2022-11-22T10:54:51;4.82;;;0.80;;
72493;SDS011;60520;49.182;-0.348;2022-11-22T10:57:26;1.33;;;0.85;;
72493;SDS011;60520;49.182;-0.348;2022-11-22T10:59:58;1.52;;;0.80;;
72493;SDS011;60520;49.182;-0.348;2022-11-22T11:02:42;2.00;;;0.68;;
72493;SDS011;60520;49.182;-0.348;2022-11-22T11:05:15;1.83;;;0.80;;
72493;SDS011;60520;49.182;-0.348;2022-11-22T11:07:45;1.65;;;0.75;;
72493;SDS011;60520;49.182;-0.348;2022-11-22T11:10:14;2.58;;;0.70;;
72493;SDS011;60520;49.182;-0.348;2022-11-22T11:12:44;2.28;;;0.70;;
72493;SDS011;60520;49.182;-0.348;2022-11-22T11:15:13;2.15;;;0.70;;
72493;SDS011;60520;49.182;-0.348;2022-11-22T11:17:43;4.05;;;0.77;;
72493;SDS011;60520;49.182;-0.348;2022-11-22T11:20:15;4.47;;;0.80;;
72493;SDS011;60520;49.182;-0.348;2022-11-22T11:22:45;1.02;;;0.57;;
72493;SDS011;60520;49.182;-0.348;2022-11-22T11:25:31;2.47;;;0.65;;
72493;SDS011;60520;49.182;-0.348;2022-11-22T11:28:00;2.55;;;0.50;;
72493;SDS011;60520;49.182;-0.348;2022-11-22T11:30:35;1.73;;;0.77;;
72493;SDS011;60520;49.182;-0.348;2022-11-22T11:33:08;1.08;;;0.60;;
72493;SDS011;60520;49.182;-0.348;2022-11-22T11:35:40;1.85;;;0.65;;
72493;SDS011;60520;49.182;-0.348;2022-11-22T11:40:49;1.88;;;0.70;;
72493;SDS011;60520;49.182;-0.348;2022-11-22T11:43:18;1.05;;;0.52;;
72493;SDS011;60520;49.182;-0.348;2022-11-22T11:45:46;1.35;;;0.70;;
72493;SDS011;60520;49.182;-0.348;2022-11-22T11:48:25;8.98;;;0.90;;
72493;SDS011;60520;49.182;-0.348;2022-11-22T11:51:04;17.77;;;1.40;;
72493;SDS011;60520;49.182;-0.348;2022-11-22T11:53:31;23.47;;;2.27;;
72493;SDS011;60520;49.182;-0.348;2022-11-22T11:58:40;13.45;;;1.30;;
72493;SDS011;60520;49.182;-0.348;2022-11-22T12:01:09;8.02;;;1.48;;
72493;SDS011;60520;49.182;-0.348;2022-11-22T12:03:37;3.63;;;0.80;;
72493;SDS011;60520;49.182;-0.348;2022-11-22T12:06:11;4.78;;;1.00;;
72493;SDS011;60520;49.182;-0.348;2022-11-22T12:08:40;6.60;;;0.93;;
72493;SDS011;60520;49.182;-0.348;2022-11-22T12:11:08;1.67;;;0.80;;
72493;SDS011;60520;49.182;-0.348;2022-11-22T12:13:39;3.70;;;0.55;;
72493;SDS011;60520;49.182;-0.348;2022-11-22T12:16:09;1.83;;;0.70;;
72493;SDS011;60520;49.182;-0.348;2022-11-22T12:18:40;2.00;;;0.70;;
72493;SDS011;60520;49.182;-0.348;2022-11-22T12:21:17;3.13;;;0.70;;
72493;SDS011;60520;49.182;-0.348;2022-11-22T12:23:50;1.52;;;0.75;;
72493;SDS011;60520;49.182;-0.348;2022-11-22T12:26:19;1.00;;;0.45;;
72493;SDS011;60520;49.182;-0.348;2022-11-22T12:28:46;2.58;;;0.60;;
72493;SDS011;60520;49.182;-0.348;2022-11-22T12:31:16;1.60;;;0.70;;
72493;SDS011;60520;49.182;-0.348;2022-11-22T12:33:49;0.98;;;0.60;;
72493;SDS011;60520;49.182;-0.348;2022-11-22T12:36:17;1.20;;;0.50;;
72493;SDS011;60520;49.182;-0.348;2022-11-22T12:38:46;1.05;;;0.45;;
72493;SDS011;60520;49.182;-0.348;2022-11-22T12:41:16;1.95;;;0.43;;
72493;SDS011;60520;49.182;-0.348;2022-11-22T12:43:44;1.30;;;0.60;;
72493;SDS011;60520;49.182;-0.348;2022-11-22T12:46:12;0.95;;;0.40;;
72493;SDS011;60520;49.182;-0.348;2022-11-22T12:48:43;1.00;;;0.47;;
72493;SDS011;60520;49.182;-0.348;2022-11-22T12:51:14;0.55;;;0.50;;
72493;SDS011;60520;49.182;-0.348;2022-11-22T12:53:44;1.27;;;0.60;;
72493;SDS011;60520;49.182;-0.348;2022-11-22T12:56:16;0.82;;;0.52;;
72493;SDS011;60520;49.182;-0.348;2022-11-22T12:58:46;1.33;;;0.60;;
72493;SDS011;60520;49.182;-0.348;2022-11-22T13:01:18;1.27;;;0.60;;
72493;SDS011;60520;49.182;-0.348;2022-11-22T13:03:49;0.77;;;0.50;;
72493;SDS011;60520;49.182;-0.348;2022-11-22T13:06:20;0.80;;;0.47;;
72493;SDS011;60520;49.182;-0.348;2022-11-22T13:08:51;1.52;;;0.68;;
72493;SDS011;60520;49.182;-0.348;2022-11-22T13:11:22;1.23;;;0.60;;
72493;SDS011;60520;49.182;-0.348;2022-11-22T13:13:52;1.50;;;0.50;;
72493;SDS011;60520;49.182;-0.348;2022-11-22T13:16:20;3.03;;;0.55;;
72493;SDS011;60520;49.182;-0.348;2022-11-22T13:18:48;1.40;;;0.57;;
72493;SDS011;60520;49.182;-0.348;2022-11-22T13:21:21;0.68;;;0.40;;
72493;SDS011;60520;49.182;-0.348;2022-11-22T13:23:54;1.00;;;0.50;;
72493;SDS011;60520;49.182;-0.348;2022-11-22T13:26:27;0.80;;;0.47;;
72493;SDS011;60520;49.182;-0.348;2022-11-22T13:28:56;1.30;;;0.50;;
72493;SDS011;60520;49.182;-0.348;2022-11-22T13:31:23;3.58;;;0.77;;
72493;SDS011;60520;49.182;-0.348;2022-11-22T13:33:52;0.98;;;0.50;;
72493;SDS011;60520;49.182;-0.348;2022-11-22T13:39:08;0.88;;;0.55;;
72493;SDS011;60520;49.182;-0.348;2022-11-22T13:41:37;0.93;;;0.50;;
72493;SDS011;60520;49.182;-0.348;2022-11-22T13:44:15;1.48;;;0.50;;
72493;SDS011;60520;49.182;-0.348;2022-11-22T13:46:53;1.92;;;0.60;;
72493;SDS011;60520;49.182;-0.348;2022-11-22T13:49:28;0.80;;;0.40;;
72493;SDS011;60520;49.182;-0.348;2022-11-22T13:51:55;0.70;;;0.50;;
72493;SDS011;60520;49.182;-0.348;2022-11-22T13:57:27;1.20;;;0.65;;
72493;SDS011;60520;49.182;-0.348;2022-11-22T14:02:41;0.73;;;0.50;;
72493;SDS011;60520;49.182;-0.348;2022-11-22T14:05:16;1.63;;;0.70;;
72493;SDS011;60520;49.182;-0.348;2022-11-22T14:07:43;1.30;;;0.60;;
72493;SDS011;60520;49.182;-0.348;2022-11-22T14:10:25;1.48;;;0.70;;
72493;SDS011;60520;49.182;-0.348;2022-11-22T14:13:02;1.02;;;0.50;;
72493;SDS011;60520;49.182;-0.348;2022-11-22T14:18:23;1.00;;;0.55;;
72493;SDS011;60520;49.182;-0.348;2022-11-22T14:20:56;0.80;;;0.57;;
72493;SDS011;60520;49.182;-0.348;2022-11-22T14:23:28;1.13;;;0.70;;
72493;SDS011;60520;49.182;-0.348;2022-11-22T14:26:04;1.35;;;0.70;;
72493;SDS011;60520;49.182;-0.348;2022-11-22T14:31:27;1.77;;;0.68;;
72493;SDS011;60520;49.182;-0.348;2022-11-22T14:34:15;1.15;;;0.80;;
72493;SDS011;60520;49.182;-0.348;2022-11-22T14:36:43;1.20;;;0.70;;
72493;SDS011;60520;49.182;-0.348;2022-11-22T14:41:56;1.25;;;0.68;;
72493;SDS011;60520;49.182;-0.348;2022-11-22T14:44:24;1.05;;;0.70;;
72493;SDS011;60520;49.182;-0.348;2022-11-22T14:46:55;1.10;;;0.50;;
72493;SDS011;60520;49.182;-0.348;2022-11-22T14:49:27;1.80;;;0.90;;
72493;SDS011;60520;49.182;-0.348;2022-11-22T14:51:57;1.75;;;0.70;;
72493;SDS011;60520;49.182;-0.348;2022-11-22T14:54:25;1.20;;;0.70;;
72493;SDS011;60520;49.182;-0.348;2022-11-22T14:56:54;1.73;;;0.77;;
72493;SDS011;60520;49.182;-0.348;2022-11-22T14:59:34;1.25;;;0.65;;
72493;SDS011;60520;49.182;-0.348;2022-11-22T15:02:16;1.83;;;0.63;;
72493;SDS011;60520;49.182;-0.348;2022-11-22T15:04:52;3.78;;;0.80;;
72493;SDS011;60520;49.182;-0.348;2022-11-22T15:07:32;1.90;;;0.63;;